Time;durP1;ratioP1;P1;durP2;ratioP2;P2;SDS_P1;SDS_P2;PMS_P1;PMS_P2;Temp;Humidity;BMP_temperature;BMP_pressure;BME280_temperature;BME280_humidity;BME280_pressure;Samples;Min_cycle;Max_cycle;Signal;HPM_P1;HPM_P2
2021/06/10 00:00:25;;;;;;;7.85;5.70;;;15.70;99.90;;;;;;5043766;28;20056;-79
2021/06/10 00:02:51;;;;;;;8.50;6.05;;;15.70;99.90;;;;;;5055658;28;20045;-79
2021/06/10 00:05:21;;;;;;;6.78;5.82;;;15.60;99.90;;;;;;5045557;28;20055;-79
2021/06/10 00:07:48;;;;;;;8.85;5.60;;;15.60;99.90;;;;;;5050614;28;20064;-79
2021/06/10 00:10:17;;;;;;;9.50;5.55;;;15.60;99.90;;;;;;5058847;28;20189;-79
2021/06/10 00:12:44;;;;;;;10.90;6.20;;;15.50;99.90;;;;;;5047258;28;20061;-79
2021/06/10 00:15:14;;;;;;;8.18;6.35;;;15.50;99.90;;;;;;5062387;28;20116;-79
2021/06/10 00:17:42;;;;;;;9.63;6.40;;;15.40;99.90;;;;;;5079884;28;20104;-79
2021/06/10 00:20:11;;;;;;;7.30;5.72;;;15.40;99.90;;;;;;5045839;28;20112;-79
2021/06/10 00:22:38;;;;;;;9.80;5.90;;;15.40;99.90;;;;;;5052470;28;20045;-79
2021/06/10 00:25:06;;;;;;;11.27;6.75;;;15.30;99.90;;;;;;5046140;28;20116;-79
2021/06/10 00:27:34;;;;;;;9.70;6.88;;;15.30;99.90;;;;;;5037868;28;20059;-78
2021/06/10 00:30:06;;;;;;;10.00;6.57;;;15.20;99.90;;;;;;5049236;28;20065;-80
2021/06/10 00:32:33;;;;;;;8.13;6.13;;;15.10;99.90;;;;;;5080284;28;20053;-79
2021/06/10 00:35:00;;;;;;;9.30;6.72;;;15.10;99.90;;;;;;5052886;28;20054;-79
2021/06/10 00:37:26;;;;;;;11.63;6.32;;;15.10;99.90;;;;;;5042941;28;20045;-79
2021/06/10 00:39:53;;;;;;;9.50;6.03;;;15.10;99.90;;;;;;5047311;28;20044;-79
2021/06/10 00:42:21;;;;;;;9.85;5.68;;;15.10;99.90;;;;;;5049983;28;20108;-79
2021/06/10 00:44:48;;;;;;;8.18;5.47;;;15.00;99.90;;;;;;5063681;28;20048;-79
2021/06/10 00:47:15;;;;;;;7.72;5.43;;;15.00;99.90;;;;;;5047850;28;20049;-79
2021/06/10 00:49:43;;;;;;;11.48;6.90;;;15.00;99.90;;;;;;5048790;28;21124;-79
2021/06/10 00:52:10;;;;;;;10.43;7.47;;;15.00;99.90;;;;;;5043502;28;20053;-79
2021/06/10 00:54:37;;;;;;;8.93;6.50;;;14.90;99.90;;;;;;5047831;28;20052;-79
2021/06/10 00:57:05;;;;;;;11.23;6.93;;;14.90;99.90;;;;;;5041998;28;20053;-79
2021/06/10 00:59:33;;;;;;;14.50;6.18;;;14.90;99.90;;;;;;5046958;28;20056;-79
2021/06/10 01:02:00;;;;;;;10.57;6.95;;;14.90;99.90;;;;;;5047882;28;20100;-79
2021/06/10 01:04:27;;;;;;;17.13;7.78;;;14.80;99.90;;;;;;5048713;28;20049;-79
2021/06/10 01:06:59;;;;;;;15.23;7.32;;;14.80;99.90;;;;;;5051172;28;20045;-79
2021/06/10 01:09:42;;;;;;;11.57;6.88;;;14.80;99.90;;;;;;5081612;28;20096;-79
2021/06/10 01:12:35;;;;;;;11.90;6.55;;;14.70;99.90;;;;;;5053218;28;20048;-79
2021/06/10 01:15:06;;;;;;;10.60;6.93;;;14.70;99.90;;;;;;5049917;28;20033;-79
2021/06/10 01:17:44;;;;;;;9.23;6.63;;;14.70;99.90;;;;;;5048738;28;20037;-80
2021/06/10 01:20:21;;;;;;;11.15;6.75;;;14.70;99.90;;;;;;5048228;28;20051;-80
2021/06/10 01:23:02;;;;;;;11.45;7.18;;;14.60;99.90;;;;;;5046555;28;20046;-80
2021/06/10 01:25:35;;;;;;;9.55;6.35;;;14.50;99.90;;;;;;5049783;28;20047;-79
2021/06/10 01:28:09;;;;;;;9.25;7.50;;;14.50;99.90;;;;;;5048421;28;20560;-79
2021/06/10 01:30:50;;;;;;;10.02;7.45;;;14.40;99.90;;;;;;5080945;28;20528;-78
2021/06/10 01:33:23;;;;;;;10.20;7.13;;;14.40;99.90;;;;;;5052527;28;20048;-78
2021/06/10 01:36:11;;;;;;;11.10;7.18;;;14.40;99.90;;;;;;5047804;28;20045;-79
2021/06/10 01:38:40;;;;;;;11.27;8.13;;;14.40;99.90;;;;;;5048466;28;20112;-78
2021/06/10 01:41:09;;;;;;;12.18;7.82;;;14.40;99.90;;;;;;5047630;28;20055;-78
2021/06/10 01:43:38;;;;;;;12.25;7.72;;;14.40;99.90;;;;;;5063024;28;20051;-79
2021/06/10 01:46:06;;;;;;;15.07;7.35;;;14.40;99.90;;;;;;5050570;28;20052;-78
2021/06/10 01:48:34;;;;;;;10.23;7.75;;;14.30;99.90;;;;;;5049331;28;20072;-78
2021/06/10 01:51:03;;;;;;;10.00;7.00;;;14.30;99.90;;;;;;5045901;28;20049;-79
2021/06/10 01:53:31;;;;;;;11.38;7.15;;;14.40;99.90;;;;;;5048869;28;20060;-79
2021/06/10 01:55:59;;;;;;;12.98;7.72;;;14.30;99.90;;;;;;5049850;28;20541;-78
2021/06/10 01:58:27;;;;;;;11.93;7.32;;;14.30;99.90;;;;;;5049212;28;20055;-79
2021/06/10 02:00:53;;;;;;;11.18;7.93;;;14.20;99.90;;;;;;5045186;28;20051;-78
2021/06/10 02:03:22;;;;;;;11.63;8.57;;;14.20;99.90;;;;;;5049897;28;20072;-79
2021/06/10 02:05:50;;;;;;;14.93;9.10;;;14.10;99.90;;;;;;5075849;28;20060;-78
2021/06/10 02:08:18;;;;;;;14.27;8.32;;;14.10;99.90;;;;;;5048611;28;20059;-78
2021/06/10 02:10:52;;;;;;;10.45;7.15;;;14.10;99.90;;;;;;5044224;28;20053;-78
2021/06/10 02:13:22;;;;;;;11.80;7.75;;;14.00;99.90;;;;;;5060789;28;20045;-79
2021/06/10 02:15:50;;;;;;;9.23;7.05;;;14.00;99.90;;;;;;5045565;28;20076;-79
2021/06/10 02:18:18;;;;;;;11.38;8.23;;;14.00;99.90;;;;;;5049597;28;20106;-78
2021/06/10 02:20:45;;;;;;;11.80;7.65;;;14.00;99.90;;;;;;5044360;28;20567;-78
2021/06/10 02:23:12;;;;;;;11.82;7.63;;;13.90;99.90;;;;;;5044438;28;20053;-78
2021/06/10 02:25:38;;;;;;;14.50;7.40;;;13.90;99.90;;;;;;5082328;28;20053;-78
2021/06/10 02:28:06;;;;;;;12.75;7.95;;;13.80;99.90;;;;;;5044560;28;20055;-78
2021/06/10 02:30:34;;;;;;;12.68;6.82;;;13.80;99.90;;;;;;5042976;28;20064;-79
2021/06/10 02:33:01;;;;;;;12.63;8.25;;;13.80;99.90;;;;;;5045161;28;20045;-79
2021/06/10 02:35:28;;;;;;;9.85;6.93;;;13.80;99.90;;;;;;5062721;28;20057;-78
2021/06/10 02:38:00;;;;;;;13.50;8.35;;;13.80;99.90;;;;;;5040126;28;20073;-78
2021/06/10 02:40:32;;;;;;;13.10;8.15;;;13.70;99.90;;;;;;5046123;28;20143;-79
2021/06/10 02:43:02;;;;;;;10.80;7.78;;;13.80;99.90;;;;;;5046119;28;20087;-79
2021/06/10 02:45:29;;;;;;;13.27;9.57;;;13.80;99.90;;;;;;5046909;28;20053;-79
2021/06/10 02:47:59;;;;;;;15.07;10.02;;;13.70;99.90;;;;;;5046093;28;20048;-79
2021/06/10 02:50:28;;;;;;;14.77;8.40;;;13.70;99.90;;;;;;5044688;28;20135;-78
2021/06/10 02:52:56;;;;;;;12.00;9.38;;;13.70;99.90;;;;;;5047447;28;20127;-78
2021/06/10 02:55:24;;;;;;;14.23;8.20;;;13.70;99.90;;;;;;5040844;28;20428;-78
2021/06/10 02:57:56;;;;;;;14.70;9.13;;;13.70;99.90;;;;;;5045479;28;20049;-78
2021/06/10 03:00:30;;;;;;;11.05;8.55;;;13.70;99.90;;;;;;5045382;28;20060;-79
2021/06/10 03:02:57;;;;;;;12.90;8.70;;;13.70;99.90;;;;;;5045917;28;20732;-79
2021/06/10 03:05:25;;;;;;;12.55;8.77;;;13.70;99.90;;;;;;5044554;28;20135;-78
2021/06/10 03:07:54;;;;;;;13.93;8.60;;;13.70;99.90;;;;;;5046839;28;20104;-79
2021/06/10 03:10:24;;;;;;;14.13;9.85;;;13.60;99.90;;;;;;5052191;28;20042;-79
2021/06/10 03:12:53;;;;;;;19.00;10.82;;;13.70;99.90;;;;;;5046247;28;20061;-78
2021/06/10 03:15:20;;;;;;;17.77;11.20;;;13.60;99.90;;;;;;5063981;28;20045;-78
2021/06/10 03:17:49;;;;;;;21.30;11.07;;;13.60;99.90;;;;;;5049470;28;20045;-78
2021/06/10 03:20:16;;;;;;;13.90;9.82;;;13.60;99.90;;;;;;5048322;28;20041;-78
2021/06/10 03:22:43;;;;;;;13.95;9.15;;;13.60;99.90;;;;;;5051052;28;20112;-79
2021/06/10 03:25:14;;;;;;;13.13;8.80;;;13.50;99.90;;;;;;5048901;28;20047;-78
2021/06/10 03:27:41;;;;;;;12.82;9.60;;;13.50;99.90;;;;;;5047906;28;20055;-78
2021/06/10 03:30:09;;;;;;;12.90;8.38;;;13.50;99.90;;;;;;5043707;28;20076;-78
2021/06/10 03:32:37;;;;;;;13.27;7.65;;;13.50;99.90;;;;;;5048336;28;20059;-78
2021/06/10 03:35:06;;;;;;;14.82;9.68;;;13.50;99.90;;;;;;5048301;28;20047;-78
2021/06/10 03:37:34;;;;;;;14.85;9.75;;;13.50;99.90;;;;;;5050709;28;20044;-79
2021/06/10 03:40:03;;;;;;;18.63;10.23;;;13.50;99.90;;;;;;5081139;28;20045;-78
2021/06/10 03:42:30;;;;;;;14.73;10.60;;;13.50;99.90;;;;;;5046796;28;20475;-78
2021/06/10 03:44:58;;;;;;;17.58;10.55;;;13.50;99.90;;;;;;5049669;28;20073;-78
2021/06/10 03:47:25;;;;;;;15.10;10.77;;;13.50;99.90;;;;;;5046468;28;20073;-78
2021/06/10 03:49:52;;;;;;;21.92;10.63;;;13.60;99.90;;;;;;5053967;28;20045;-79
2021/06/10 03:52:26;;;;;;;21.17;11.70;;;13.60;99.90;;;;;;5045879;28;20053;-79
2021/06/10 03:54:56;;;;;;;17.27;10.80;;;13.60;99.90;;;;;;5046800;28;20060;-78
2021/06/10 03:57:23;;;;;;;16.80;10.50;;;13.60;99.90;;;;;;5047027;28;20065;-79
2021/06/10 03:59:50;;;;;;;14.73;10.43;;;13.60;99.90;;;;;;5045622;28;20053;-78
2021/06/10 04:02:16;;;;;;;18.98;12.15;;;13.70;99.90;;;;;;5048036;28;20605;-79
2021/06/10 04:04:44;;;;;;;14.43;10.60;;;13.70;99.90;;;;;;5045916;28;20053;-78
2021/06/10 04:07:12;;;;;;;19.25;10.90;;;13.70;99.90;;;;;;5063900;28;20132;-78
2021/06/10 04:09:39;;;;;;;16.13;10.55;;;13.80;99.90;;;;;;5051624;28;20048;-78
2021/06/10 04:12:07;;;;;;;14.15;9.77;;;13.90;99.90;;;;;;5045126;28;20050;-78
2021/06/10 04:14:34;;;;;;;15.57;9.70;;;13.90;99.90;;;;;;5047824;28;20063;-78
2021/06/10 04:17:01;;;;;;;13.35;10.00;;;14.00;99.90;;;;;;5050567;28;20060;-79
2021/06/10 04:19:28;;;;;;;14.43;9.45;;;14.10;99.90;;;;;;5044708;28;20060;-79
2021/06/10 04:21:55;;;;;;;17.73;10.68;;;14.10;99.90;;;;;;5049378;28;20053;-79
2021/06/10 04:24:22;;;;;;;13.85;9.70;;;14.20;99.90;;;;;;5063232;28;20052;-78
2021/06/10 04:26:49;;;;;;;15.73;9.43;;;14.20;99.90;;;;;;5046494;28;20049;-79
2021/06/10 04:29:15;;;;;;;13.77;10.15;;;14.30;99.90;;;;;;5076111;28;20056;-79
2021/06/10 04:31:42;;;;;;;14.70;10.05;;;14.40;99.90;;;;;;5046829;28;20053;-78
2021/06/10 04:34:09;;;;;;;18.27;10.40;;;14.50;99.90;;;;;;5054771;28;20052;-78
2021/06/10 04:36:35;;;;;;;15.15;9.02;;;14.50;99.90;;;;;;5059775;28;20044;-78
2021/06/10 04:39:03;;;;;;;13.77;9.38;;;14.70;99.90;;;;;;5046965;28;20055;-78
2021/06/10 04:41:30;;;;;;;15.35;9.50;;;14.80;99.90;;;;;;5045380;28;20510;-78
2021/06/10 04:43:57;;;;;;;15.45;9.65;;;14.90;99.90;;;;;;5050778;28;20056;-78
2021/06/10 04:46:24;;;;;;;12.48;8.45;;;15.00;99.90;;;;;;5055737;28;20048;-78
2021/06/10 04:48:51;;;;;;;12.70;8.70;;;15.10;99.90;;;;;;5048536;28;20045;-78
2021/06/10 04:51:17;;;;;;;13.88;9.88;;;15.20;99.90;;;;;;5044830;28;20396;-78
2021/06/10 04:53:46;;;;;;;13.23;9.07;;;15.30;99.90;;;;;;5047907;28;20049;-79
2021/06/10 04:56:12;;;;;;;19.92;8.98;;;15.40;99.90;;;;;;5044749;28;20055;-79
2021/06/10 04:58:44;;;;;;;16.25;10.15;;;15.60;99.90;;;;;;5046829;28;20575;-79
2021/06/10 05:01:10;;;;;;;13.07;8.45;;;15.70;99.90;;;;;;5053079;28;20133;-79
2021/06/10 05:03:37;;;;;;;12.10;7.88;;;15.80;99.90;;;;;;5046477;28;20053;-79
2021/06/10 05:06:04;;;;;;;13.65;9.48;;;15.90;99.90;;;;;;5042898;28;20488;-79
2021/06/10 05:08:32;;;;;;;13.50;9.35;;;16.00;99.90;;;;;;5043861;28;20056;-79
2021/06/10 05:11:00;;;;;;;12.30;9.00;;;16.10;99.90;;;;;;5047312;28;20049;-79
2021/06/10 05:13:27;;;;;;;12.30;8.77;;;16.20;99.90;;;;;;5039100;28;21580;-79
2021/06/10 05:15:53;;;;;;;13.23;9.52;;;16.30;99.90;;;;;;5076985;28;20051;-79
2021/06/10 05:18:20;;;;;;;12.98;8.20;;;16.40;99.90;;;;;;5039485;28;20045;-79
2021/06/10 05:20:48;;;;;;;12.80;8.95;;;16.50;99.90;;;;;;5047040;28;20071;-79
2021/06/10 05:23:16;;;;;;;11.85;8.80;;;16.60;99.90;;;;;;5048149;28;20052;-80
2021/06/10 05:25:43;;;;;;;12.10;8.90;;;16.70;99.90;;;;;;5037677;28;20037;-79
2021/06/10 05:28:10;;;;;;;13.00;8.23;;;16.70;99.90;;;;;;5047354;28;20053;-79
2021/06/10 05:30:37;;;;;;;13.98;10.00;;;16.90;99.90;;;;;;5046635;28;20063;-80
2021/06/10 05:33:04;;;;;;;12.82;9.40;;;17.00;99.90;;;;;;5045750;28;20055;-79
2021/06/10 05:35:30;;;;;;;13.70;8.27;;;17.10;99.90;;;;;;5047201;28;20052;-79
2021/06/10 05:37:57;;;;;;;13.68;8.82;;;17.20;99.90;;;;;;5079002;28;20045;-79
2021/06/10 05:40:24;;;;;;;18.00;8.98;;;17.40;99.90;;;;;;5047020;28;20048;-80
2021/06/10 05:42:51;;;;;;;11.07;8.52;;;17.60;99.90;;;;;;5046731;28;20055;-80
2021/06/10 05:45:17;;;;;;;11.20;9.05;;;17.70;99.90;;;;;;5045680;28;20500;-78
2021/06/10 05:47:44;;;;;;;13.05;8.90;;;17.70;99.90;;;;;;5047211;28;20567;-78
2021/06/10 05:50:11;;;;;;;9.55;7.93;;;17.90;99.90;;;;;;5038938;28;20109;-78
2021/06/10 05:52:39;;;;;;;13.90;9.70;;;18.00;99.90;;;;;;5053518;28;20136;-78
2021/06/10 05:55:07;;;;;;;10.88;8.80;;;18.20;99.90;;;;;;5079215;28;20052;-79
2021/06/10 05:57:34;;;;;;;10.95;8.95;;;18.30;99.90;;;;;;5048464;28;20071;-79
2021/06/10 06:00:01;;;;;;;13.27;9.32;;;18.50;99.90;;;;;;5046551;28;20494;-79
2021/06/10 06:02:27;;;;;;;15.75;9.10;;;18.60;99.90;;;;;;5049143;28;20041;-77
2021/06/10 06:04:54;;;;;;;12.07;9.00;;;18.70;99.90;;;;;;5044498;28;20045;-79
2021/06/10 06:07:21;;;;;;;12.77;9.07;;;18.90;99.90;;;;;;5046771;28;20051;-81
2021/06/10 06:09:47;;;;;;;11.25;9.15;;;19.00;99.90;;;;;;5045338;28;20044;-78
2021/06/10 06:12:15;;;;;;;11.98;9.23;;;19.10;99.90;;;;;;5051979;28;20049;-78
2021/06/10 06:14:45;;;;;;;11.20;8.65;;;19.20;99.90;;;;;;5048017;28;20045;-80
2021/06/10 06:17:13;;;;;;;10.93;8.48;;;19.30;99.90;;;;;;5044717;28;20485;-78
2021/06/10 06:19:39;;;;;;;11.13;9.20;;;19.40;99.50;;;;;;5048976;28;20144;-80
2021/06/10 06:22:08;;;;;;;15.20;8.93;;;19.40;99.40;;;;;;5045810;28;20104;-80
2021/06/10 06:24:35;;;;;;;15.15;9.55;;;19.50;99.70;;;;;;5046177;28;20393;-79
2021/06/10 06:27:03;;;;;;;14.13;8.68;;;19.60;99.90;;;;;;5045804;28;20044;-77
2021/06/10 06:29:30;;;;;;;13.40;9.38;;;19.70;99.90;;;;;;5040617;28;20053;-78
2021/06/10 06:31:58;;;;;;;13.23;9.60;;;19.80;99.10;;;;;;5051856;28;20077;-79
2021/06/10 06:34:25;;;;;;;15.77;10.35;;;20.00;99.50;;;;;;5045859;28;20567;-79
2021/06/10 06:36:54;;;;;;;12.73;10.15;;;20.00;99.20;;;;;;5047803;28;20041;-78
2021/06/10 06:39:21;;;;;;;11.15;9.88;;;20.10;98.90;;;;;;5045052;28;20100;-78
2021/06/10 06:41:48;;;;;;;11.80;10.18;;;20.20;99.20;;;;;;5045047;28;21598;-79
2021/06/10 06:44:16;;;;;;;12.13;10.35;;;20.40;98.70;;;;;;5050755;28;20081;-79
2021/06/10 06:46:43;;;;;;;14.43;11.50;;;20.50;97.80;;;;;;5046676;28;20558;-79
2021/06/10 06:49:14;;;;;;;17.05;11.07;;;20.60;98.30;;;;;;5041946;28;20152;-81
2021/06/10 06:51:42;;;;;;;14.07;10.70;;;20.70;97.70;;;;;;5019621;28;20056;-79
2021/06/10 06:54:09;;;;;;;16.85;11.38;;;20.80;98.10;;;;;;5043369;28;20156;-79
2021/06/10 06:56:35;;;;;;;13.40;10.30;;;20.90;98.00;;;;;;5047250;28;20049;-79
2021/06/10 06:59:02;;;;;;;15.27;10.75;;;21.10;97.10;;;;;;5062078;28;20593;-78
2021/06/10 07:01:29;;;;;;;12.82;10.55;;;21.10;96.70;;;;;;5059937;28;20051;-79
2021/06/10 07:03:56;;;;;;;13.70;11.23;;;21.30;96.30;;;;;;5040427;28;20065;-79
2021/06/10 07:06:22;;;;;;;14.13;10.93;;;21.30;96.40;;;;;;5032187;28;20057;-79
2021/06/10 07:08:50;;;;;;;14.55;9.88;;;21.40;96.20;;;;;;5040766;28;20051;-79
2021/06/10 07:11:32;;;;;;;15.45;10.95;;;21.50;96.90;;;;;;5045254;28;20661;-79
2021/06/10 07:13:59;;;;;;;11.90;9.40;;;21.60;96.60;;;;;;5051511;28;20534;-80
2021/06/10 07:16:25;;;;;;;10.45;9.35;;;21.80;96.00;;;;;;5046607;28;20148;-79
2021/06/10 07:18:52;;;;;;;12.55;9.93;;;21.90;95.80;;;;;;5036019;28;20045;-79
2021/06/10 07:21:19;;;;;;;11.48;9.27;;;22.00;95.50;;;;;;5044657;28;20049;-79
2021/06/10 07:23:46;;;;;;;11.73;8.55;;;22.10;93.90;;;;;;5043271;28;20052;-79
2021/06/10 07:26:13;;;;;;;8.30;6.97;;;22.20;93.80;;;;;;5076084;28;20396;-79
2021/06/10 07:28:40;;;;;;;13.23;7.50;;;22.30;93.10;;;;;;5044857;28;20116;-79
2021/06/10 07:31:06;;;;;;;8.82;7.15;;;22.40;92.30;;;;;;5057784;28;20125;-79
2021/06/10 07:33:34;;;;;;;8.02;7.00;;;22.50;92.70;;;;;;5044457;28;20041;-79
2021/06/10 07:36:01;;;;;;;7.55;6.78;;;22.70;91.80;;;;;;5042404;28;20053;-80
2021/06/10 07:38:27;;;;;;;7.82;6.85;;;22.80;90.70;;;;;;5041105;28;20057;-79
2021/06/10 07:40:54;;;;;;;7.80;5.97;;;22.90;90.40;;;;;;5040326;28;20102;-79
2021/06/10 07:43:21;;;;;;;9.82;6.38;;;23.00;89.60;;;;;;5045679;28;20059;-79
2021/06/10 07:45:48;;;;;;;8.60;6.80;;;23.10;89.80;;;;;;5074473;28;20071;-79
2021/06/10 07:48:14;;;;;;;9.20;7.50;;;23.20;87.30;;;;;;5043823;28;20071;-79
2021/06/10 07:50:41;;;;;;;6.60;6.00;;;23.20;88.20;;;;;;5037650;28;20044;-79
2021/06/10 07:53:09;;;;;;;6.82;5.75;;;23.30;87.50;;;;;;5043029;28;20448;-79
2021/06/10 07:55:39;;;;;;;6.35;5.35;;;23.30;87.50;;;;;;5044092;28;20678;-79
2021/06/10 07:58:06;;;;;;;6.28;5.55;;;23.40;84.70;;;;;;5046222;28;20049;-80
2021/06/10 08:00:33;;;;;;;5.60;4.97;;;23.60;85.40;;;;;;5048814;28;20113;-80
2021/06/10 08:03:00;;;;;;;7.18;5.57;;;23.60;84.30;;;;;;5043596;28;20133;-81
2021/06/10 08:05:27;;;;;;;6.40;5.70;;;23.80;84.10;;;;;;5047240;28;20059;-78
2021/06/10 08:07:55;;;;;;;6.20;5.15;;;23.80;82.40;;;;;;5043162;28;20104;-79
2021/06/10 08:10:23;;;;;;;7.70;4.78;;;24.00;80.80;;;;;;5042293;28;20053;-79
2021/06/10 08:12:49;;;;;;;6.95;5.95;;;24.00;80.90;;;;;;5056993;28;20054;-79
2021/06/10 08:15:20;;;;;;;6.60;4.80;;;24.00;80.50;;;;;;5040666;28;20056;-79
2021/06/10 08:17:47;;;;;;;8.13;4.65;;;24.00;83.40;;;;;;5045097;28;20049;-79
2021/06/10 08:20:16;;;;;;;7.07;5.43;;;24.20;80.80;;;;;;5042496;28;20064;-79
2021/06/10 08:22:44;;;;;;;6.45;5.35;;;24.20;82.00;;;;;;5042881;28;20080;-79
2021/06/10 08:25:11;;;;;;;5.43;4.93;;;24.40;79.70;;;;;;5042312;28;21171;-79
2021/06/10 08:27:38;;;;;;;7.45;5.63;;;24.60;80.80;;;;;;5048647;28;20065;-79
2021/06/10 08:30:06;;;;;;;6.20;5.57;;;24.70;79.20;;;;;;5040138;28;20073;-79
2021/06/10 08:32:33;;;;;;;6.43;5.28;;;24.90;79.70;;;;;;5049384;28;20049;-78
2021/06/10 08:35:00;;;;;;;5.38;4.63;;;25.00;76.20;;;;;;5054932;28;20056;-78
2021/06/10 08:37:27;;;;;;;5.93;4.85;;;25.00;74.10;;;;;;5051773;28;20104;-79
2021/06/10 08:39:54;;;;;;;4.22;3.50;;;24.90;74.10;;;;;;5042487;28;20061;-78
2021/06/10 08:42:21;;;;;;;5.60;3.60;;;24.90;74.20;;;;;;5044057;28;20053;-80
2021/06/10 08:44:49;;;;;;;5.10;3.10;;;25.00;73.90;;;;;;5068033;28;20057;-78
2021/06/10 08:47:21;;;;;;;3.33;2.88;;;25.00;73.90;;;;;;5047482;28;20065;-79
2021/06/10 08:49:50;;;;;;;6.70;2.60;;;25.20;72.30;;;;;;5047194;28;20048;-78
2021/06/10 08:52:19;;;;;;;3.85;2.72;;;25.20;72.80;;;;;;5047830;28;20045;-79
2021/06/10 08:54:45;;;;;;;4.03;2.97;;;25.30;71.60;;;;;;5053952;28;20139;-78
2021/06/10 08:57:12;;;;;;;4.13;2.50;;;25.50;75.00;;;;;;5061066;28;20043;-78
2021/06/10 08:59:39;;;;;;;4.40;2.60;;;25.70;72.80;;;;;;5046825;28;20052;-78
2021/06/10 09:02:08;;;;;;;3.03;2.20;;;25.80;72.60;;;;;;5047395;28;20125;-79
2021/06/10 09:04:35;;;;;;;4.25;3.05;;;26.00;72.90;;;;;;5041600;28;20141;-78
2021/06/10 09:07:04;;;;;;;3.70;2.70;;;26.10;72.50;;;;;;5036399;28;20057;-78
2021/06/10 09:09:40;;;;;;;3.28;2.65;;;26.20;68.60;;;;;;5046477;28;20136;-79
2021/06/10 09:12:09;;;;;;;3.53;2.60;;;26.20;67.30;;;;;;5074461;28;20511;-78
2021/06/10 09:15:03;;;;;;;8.15;2.92;;;26.30;68.30;;;;;;5050831;28;20053;-79
2021/06/10 09:17:39;;;;;;;7.28;2.92;;;26.40;67.60;;;;;;5043791;28;20052;-78
2021/06/10 09:20:37;;;;;;;5.78;2.88;;;26.50;68.40;;;;;;5055522;28;20057;-79
2021/06/10 09:23:23;;;;;;;3.88;3.05;;;26.60;66.00;;;;;;5058152;28;20140;-79
2021/06/10 09:26:04;;;;;;;2.72;2.50;;;26.70;69.60;;;;;;5043562;28;20049;-79
2021/06/10 09:28:35;;;;;;;2.72;2.53;;;26.70;69.20;;;;;;5062099;28;20052;-79
2021/06/10 09:31:02;;;;;;;3.20;2.33;;;26.80;68.70;;;;;;5045237;28;20048;-79
2021/06/10 09:33:44;;;;;;;5.32;2.42;;;26.90;66.80;;;;;;5039062;28;20073;-79
2021/06/10 09:36:15;;;;;;;4.85;3.78;;;27.00;68.80;;;;;;5062763;28;20551;-79
2021/06/10 09:39:13;;;;;;;5.88;3.53;;;27.20;67.10;;;;;;5042953;28;20060;-79
2021/06/10 09:41:59;;;;;;;13.73;4.45;;;27.20;65.60;;;;;;5045025;28;20463;-80
2021/06/10 09:44:43;;;;;;;10.43;3.95;;;27.20;66.80;;;;;;5059656;28;20437;-80
2021/06/10 09:47:11;;;;;;;5.10;2.90;;;27.20;66.70;;;;;;5073686;28;20899;-80
2021/06/10 09:49:38;;;;;;;4.00;2.38;;;27.30;62.80;;;;;;5045770;28;20059;-80
2021/06/10 09:52:05;;;;;;;11.60;3.58;;;27.30;64.50;;;;;;5016709;28;20075;-80
2021/06/10 09:54:55;;;;;;;6.72;2.67;;;27.40;66.20;;;;;;5036467;28;20045;-80
2021/06/10 09:57:21;;;;;;;8.82;3.10;;;27.60;67.80;;;;;;5060115;28;20052;-80
2021/06/10 09:59:52;;;;;;;3.60;3.05;;;27.70;63.80;;;;;;5053489;28;20055;-80
2021/06/10 10:02:22;;;;;;;5.18;2.35;;;27.80;65.30;;;;;;5075785;28;20409;-80
2021/06/10 10:05:08;;;;;;;6.03;2.00;;;27.80;64.80;;;;;;5047647;28;20048;-80
2021/06/10 10:07:37;;;;;;;3.05;2.28;;;27.80;63.50;;;;;;5047102;28;20484;-79
2021/06/10 10:10:06;;;;;;;2.10;1.92;;;27.80;64.80;;;;;;5029721;28;20041;-80
2021/06/10 10:12:38;;;;;;;2.03;1.88;;;27.80;61.80;;;;;;5043435;28;20123;-79
2021/06/10 10:15:06;;;;;;;7.95;2.33;;;27.70;61.80;;;;;;5050350;28;20045;-80
2021/06/10 10:17:33;;;;;;;1.90;1.50;;;27.70;62.70;;;;;;5043673;28;20053;-80
2021/06/10 10:20:00;;;;;;;6.40;2.05;;;27.70;61.70;;;;;;5073608;28;20461;-80
2021/06/10 10:22:27;;;;;;;14.90;1.73;;;27.70;62.60;;;;;;5042468;28;20076;-79
2021/06/10 10:24:54;;;;;;;3.28;1.67;;;27.80;63.80;;;;;;5049235;28;20041;-79
2021/06/10 10:27:22;;;;;;;3.40;1.85;;;27.90;60.90;;;;;;5035693;28;20739;-80
2021/06/10 10:29:49;;;;;;;3.15;1.77;;;28.00;57.80;;;;;;5046256;28;20044;-80
2021/06/10 10:32:27;;;;;;;4.78;1.60;;;27.90;59.00;;;;;;5045298;28;20128;-80
2021/06/10 10:35:27;;;;;;;1.48;1.30;;;27.80;58.70;;;;;;5080284;28;20056;-80
2021/06/10 10:37:56;;;;;;;1.50;1.38;;;27.90;56.50;;;;;;5041417;28;20581;-79
2021/06/10 10:40:30;;;;;;;2.25;1.05;;;27.90;59.10;;;;;;5058866;28;20050;-80
2021/06/10 10:43:13;;;;;;;2.80;0.93;;;27.90;56.10;;;;;;5076668;28;20057;-80
2021/06/10 10:45:44;;;;;;;1.20;0.85;;;27.90;55.00;;;;;;5056187;28;20052;-80
2021/06/10 10:48:15;;;;;;;2.90;0.98;;;27.90;55.80;;;;;;5047281;28;20083;-80
2021/06/10 10:50:43;;;;;;;5.75;1.10;;;27.90;55.90;;;;;;5042068;28;20131;-80
2021/06/10 10:53:21;;;;;;;2.13;1.50;;;28.00;53.40;;;;;;5044716;28;20068;-79
2021/06/10 10:56:10;;;;;;;1.45;1.02;;;28.00;53.60;;;;;;5074682;28;20106;-80
2021/06/10 10:58:38;;;;;;;3.33;1.30;;;28.00;54.80;;;;;;5043966;28;20105;-80
2021/06/10 11:01:08;;;;;;;3.80;1.00;;;28.20;57.00;;;;;;5045592;28;20045;-80
2021/06/10 11:03:42;;;;;;;1.70;1.27;;;28.40;54.00;;;;;;5048912;28;20049;-80
2021/06/10 11:06:32;;;;;;;1.85;0.98;;;28.60;53.80;;;;;;5080305;28;20143;-79
2021/06/10 11:09:12;;;;;;;1.90;1.15;;;28.80;52.00;;;;;;5046883;28;20052;-80
2021/06/10 11:11:49;;;;;;;1.98;1.23;;;28.80;52.80;;;;;;5046807;28;20389;-80
2021/06/10 11:14:52;;;;;;;3.55;1.25;;;29.00;51.50;;;;;;5078775;28;20061;-80
2021/06/10 11:17:31;;;;;;;1.42;1.00;;;29.20;52.10;;;;;;5066334;28;20044;-79
2021/06/10 11:20:08;;;;;;;2.63;1.35;;;29.50;51.40;;;;;;5041991;28;20132;-79
2021/06/10 11:22:40;;;;;;;2.50;1.52;;;29.60;53.80;;;;;;5038665;28;20044;-79
2021/06/10 11:25:15;;;;;;;1.17;1.00;;;29.70;51.70;;;;;;5042602;28;20049;-79
2021/06/10 11:27:44;;;;;;;2.05;1.40;;;29.80;50.50;;;;;;5047521;28;20057;-81
2021/06/10 11:30:17;;;;;;;3.63;1.40;;;29.90;51.10;;;;;;5075108;28;20052;-79
2021/06/10 11:33:04;;;;;;;4.43;1.55;;;30.20;52.40;;;;;;5041961;28;20057;-79
2021/06/10 11:35:39;;;;;;;6.90;1.70;;;30.70;49.60;;;;;;5043955;28;20100;-79
2021/06/10 11:38:24;;;;;;;6.10;2.13;;;31.20;50.00;;;;;;5074200;28;20057;-79
2021/06/10 11:40:53;;;;;;;3.42;1.90;;;31.50;50.30;;;;;;5041857;28;20400;-79
2021/06/10 11:43:21;;;;;;;3.33;1.70;;;31.60;45.60;;;;;;5055567;28;20055;-79
2021/06/10 11:45:50;;;;;;;5.18;2.17;;;31.60;50.30;;;;;;5041732;28;21272;-80
2021/06/10 11:48:33;;;;;;;5.82;2.33;;;31.70;45.00;;;;;;5056283;28;20139;-80
2021/06/10 11:51:06;;;;;;;4.35;1.70;;;31.80;46.70;;;;;;5051211;28;20045;-79
2021/06/10 11:53:33;;;;;;;5.50;2.40;;;32.00;48.30;;;;;;5034720;28;20045;-79
2021/06/10 11:56:00;;;;;;;5.80;2.25;;;32.20;46.00;;;;;;5051608;28;20050;-80
2021/06/10 11:58:29;;;;;;;4.55;2.17;;;32.50;43.40;;;;;;5039983;28;20064;-79
2021/06/10 12:01:08;;;;;;;5.65;2.33;;;32.80;44.30;;;;;;5045557;28;20052;-80
2021/06/10 12:03:35;;;;;;;2.70;1.88;;;33.10;45.50;;;;;;5042210;28;20102;-79
2021/06/10 12:06:03;;;;;;;3.65;2.05;;;33.50;46.40;;;;;;5043185;28;20579;-80
2021/06/10 12:08:32;;;;;;;5.15;2.42;;;34.10;46.40;;;;;;5045212;28;20045;-80
2021/06/10 12:11:11;;;;;;;3.63;2.15;;;34.60;45.40;;;;;;5046845;28;20055;-80
2021/06/10 12:13:50;;;;;;;5.55;3.20;;;35.30;45.90;;;;;;5048785;28;20057;-80
2021/06/10 12:16:18;;;;;;;5.88;2.08;;;36.00;42.40;;;;;;5064802;28;20127;-80
2021/06/10 12:18:52;;;;;;;3.08;1.70;;;36.60;44.50;;;;;;5047323;28;20115;-79
2021/06/10 12:21:27;;;;;;;6.28;3.25;;;37.00;45.00;;;;;;5077561;28;20106;-80
2021/06/10 12:24:00;;;;;;;4.18;2.25;;;37.60;42.00;;;;;;5076662;28;20055;-80
2021/06/10 12:26:31;;;;;;;4.97;2.63;;;38.10;42.70;;;;;;5044594;28;20121;-80
2021/06/10 12:29:00;;;;;;;10.25;3.88;;;38.70;42.50;;;;;;5047272;28;20068;-80
2021/06/10 12:31:32;;;;;;;5.50;2.60;;;39.10;39.80;;;;;;5039063;28;20423;-80
2021/06/10 12:34:00;;;;;;;2.88;2.22;;;39.20;38.70;;;;;;5060673;28;20076;-80
2021/06/10 12:36:30;;;;;;;5.93;2.60;;;39.40;43.10;;;;;;5048195;28;20056;-80
2021/06/10 12:39:18;;;;;;;2.38;2.05;;;39.60;39.30;;;;;;5078132;28;20049;-80
2021/06/10 12:41:50;;;;;;;7.47;2.22;;;39.60;40.20;;;;;;5077303;28;20058;-80
2021/06/10 12:44:20;;;;;;;1.90;1.80;;;39.50;40.00;;;;;;5049037;28;20048;-80
2021/06/10 12:46:52;;;;;;;2.83;1.67;;;39.50;40.60;;;;;;5064085;28;20091;-80
2021/06/10 12:49:23;;;;;;;3.83;1.80;;;39.60;40.40;;;;;;5079868;28;20041;-80
2021/06/10 12:51:51;;;;;;;2.40;2.20;;;39.80;40.50;;;;;;5048963;28;20049;-80
2021/06/10 12:54:28;;;;;;;5.50;1.90;;;40.00;38.20;;;;;;5048392;28;20508;-80